createdAt,value
2023-02-26T00:02:01.419Z,4.09
2023-02-26T00:04:30.797Z,4.02
2023-02-26T00:06:59.272Z,4.02
2023-02-26T00:09:28.986Z,4.12
2023-02-26T00:11:59.369Z,4.15
2023-02-26T00:14:29.225Z,4.09
2023-02-26T00:17:40.159Z,4.06
2023-02-26T00:20:11.868Z,3.93
2023-02-26T00:22:41.069Z,4.02
2023-02-26T00:25:11.341Z,4.05
2023-02-26T00:27:40.735Z,4.03
2023-02-26T00:30:10.457Z,4.04
2023-02-26T00:32:40.002Z,4.01
2023-02-26T00:35:15.666Z,4.02
2023-02-26T00:38:02.248Z,4.01
2023-02-26T00:40:41.399Z,3.90
2023-02-26T00:43:15.925Z,3.87
2023-02-26T00:45:52.113Z,3.88
2023-02-26T00:48:38.738Z,3.91
2023-02-26T00:51:35.747Z,3.88
2023-02-26T00:54:19.625Z,3.77
2023-02-26T00:56:50.115Z,3.72
2023-02-26T00:59:20.781Z,3.65
2023-02-26T01:01:51.063Z,3.61
2023-02-26T01:04:23.100Z,3.64
2023-02-26T01:06:58.029Z,3.60
2023-02-26T01:09:33.929Z,3.60
2023-02-26T01:12:07.952Z,3.55
2023-02-26T01:14:36.991Z,3.61
2023-02-26T01:17:14.560Z,3.74
2023-02-26T01:20:07.300Z,3.71
2023-02-26T01:22:56.753Z,3.60
2023-02-26T01:25:40.212Z,3.61
2023-02-26T01:28:26.646Z,3.57
2023-02-26T01:31:56.745Z,3.56
2023-02-26T01:34:37.526Z,3.48
2023-02-26T01:37:49.431Z,3.50
2023-02-26T01:41:05.079Z,3.45
2023-02-26T01:44:08.804Z,3.49
2023-02-26T01:46:56.848Z,3.48
2023-02-26T01:49:27.091Z,3.54
2023-02-26T01:52:02.826Z,3.55
2023-02-26T01:54:34.501Z,3.54
2023-02-26T01:57:08.885Z,3.55
2023-02-26T01:59:41.404Z,3.57
2023-02-26T02:02:30.635Z,3.51
2023-02-26T02:05:33.008Z,3.46
2023-02-26T02:08:02.195Z,3.48
2023-02-26T02:10:32.413Z,3.54
2023-02-26T02:13:21.561Z,3.58
2023-02-26T02:16:15.102Z,3.48
2023-02-26T02:19:21.808Z,3.37
2023-02-26T02:22:36.756Z,3.12
2023-02-26T02:25:46.922Z,3.13
2023-02-26T02:28:48.552Z,3.18
2023-02-26T02:31:28.494Z,3.17
2023-02-26T02:34:05.355Z,3.25
2023-02-26T02:37:10.874Z,3.17
2023-02-26T02:40:08.907Z,3.18
2023-02-26T02:42:53.131Z,3.28
2023-02-26T02:45:55.439Z,3.30
2023-02-26T04:48:02.810Z,2.73
2023-02-26T04:50:31.250Z,2.72
2023-02-26T04:52:59.685Z,2.83
2023-02-26T04:55:28.095Z,2.93
2023-02-26T04:57:56.490Z,3.12
2023-02-26T05:00:26.031Z,3.28
2023-02-26T05:02:55.674Z,3.29
2023-02-26T05:05:25.321Z,3.31
2023-02-26T05:07:57.440Z,3.33
2023-02-26T05:10:26.689Z,3.41
2023-02-26T05:12:54.939Z,3.50
2023-02-26T05:15:23.148Z,3.51
2023-02-26T05:17:52.169Z,3.51
2023-02-26T05:20:20.319Z,3.53
2023-02-26T05:22:48.957Z,3.58
2023-02-26T05:25:17.246Z,3.66
2023-02-26T05:27:45.668Z,3.64
2023-02-26T05:30:17.004Z,3.57
2023-02-26T05:32:46.105Z,3.53
2023-02-26T05:35:14.666Z,3.53
2023-02-26T05:37:42.897Z,3.60
2023-02-26T05:40:12.139Z,3.55
2023-02-26T05:42:41.313Z,3.55
2023-02-26T05:45:10.557Z,3.52
2023-02-26T05:47:39.278Z,3.58
2023-02-26T05:50:08.309Z,3.68
2023-02-26T05:52:36.663Z,3.64
2023-02-26T05:55:07.192Z,3.59
2023-02-26T05:57:35.615Z,3.62
2023-02-26T06:00:07.349Z,3.67
2023-02-26T06:02:35.829Z,3.72
2023-02-26T06:05:05.893Z,3.75
2023-02-26T06:07:34.522Z,3.74
2023-02-26T06:10:02.996Z,3.75
2023-02-26T06:12:31.162Z,3.79
2023-02-26T06:14:59.756Z,3.84
2023-02-26T06:17:28.302Z,3.92
2023-02-26T06:19:56.750Z,3.90
2023-02-26T06:22:25.284Z,3.86
2023-02-26T06:24:55.590Z,3.86
2023-02-26T06:27:24.458Z,3.89
2023-02-26T06:29:53.381Z,3.94
2023-02-26T06:32:22.319Z,3.98
2023-02-26T06:34:50.466Z,3.98
2023-02-26T06:37:18.716Z,3.98
2023-02-26T06:39:47.044Z,4.04
2023-02-26T06:42:15.684Z,4.08
2023-02-26T06:44:43.947Z,4.10
2023-02-26T06:47:12.308Z,4.07
2023-02-26T06:49:41.631Z,4.10
2023-02-26T06:52:10.153Z,4.12
2023-02-26T06:54:38.837Z,4.20
2023-02-26T06:57:10.204Z,4.20
2023-02-26T06:59:39.735Z,4.18
2023-02-26T07:02:17.547Z,4.14
2023-02-26T07:04:46.160Z,4.11
2023-02-26T07:07:15.055Z,4.19
2023-02-26T07:09:45.864Z,4.20
2023-02-26T07:12:14.697Z,4.22
2023-02-26T07:14:46.629Z,4.25
2023-02-26T07:17:21.271Z,4.33
2023-02-26T07:19:53.762Z,4.36
2023-02-26T07:22:22.428Z,4.38
2023-02-26T07:24:51.896Z,4.41
2023-02-26T07:27:20.352Z,4.37
2023-02-26T07:29:49.050Z,4.39
2023-02-26T07:32:17.658Z,4.47
2023-02-26T07:34:45.964Z,4.54
2023-02-26T07:37:14.997Z,4.53
2023-02-26T07:39:44.219Z,4.56
2023-02-26T07:42:13.662Z,4.59
2023-02-26T07:44:41.974Z,4.62
2023-02-26T07:47:11.238Z,4.64
2023-02-26T07:49:39.560Z,4.61
2023-02-26T07:52:08.636Z,4.58
2023-02-26T07:54:38.732Z,4.66
2023-02-26T07:57:07.959Z,4.70
2023-02-26T07:59:36.446Z,4.69
2023-02-26T08:02:05.501Z,4.65
2023-02-26T08:04:36.162Z,4.61
2023-02-26T08:07:04.636Z,4.54
2023-02-26T08:09:33.183Z,4.49
2023-02-26T08:12:02.615Z,4.48
2023-02-26T08:14:30.908Z,4.41
2023-02-26T08:17:00.156Z,4.34
2023-02-26T08:19:28.435Z,4.33
2023-02-26T08:21:56.665Z,4.33
2023-02-26T08:24:25.386Z,4.35
2023-02-26T08:26:53.693Z,4.31
2023-02-26T08:29:22.340Z,4.35
